TRA52Q EHAM-LEBL
Flight info
| Callsign | TRA52Q |
|---|---|
| Flight time | 1h 55m |
| Altitude | 31000 |
| Route | WOODY N872 MEDIL/N0443F350 DCT KOVIN DCT DUCRA UM728 RESMI UN857 DISAK DCT DIRMO DCT VALKU DCT ATSUP DCT MINSO DCT DEGOL DCT PPG DCT ALBER |
| Aircraft | B738/M-SDE2E3FGHIRWXY/LB1 |
Departure
| Time | 2026-05-05 10:17 |
|---|---|
| Airport | Amsterdam Airport Schiphol (EHAM) |
Arrival
| Time | 2026-05-05 12:12 |
|---|---|
| Airport | Josep Tarradellas Barcelona-El Prat Airport (LEBL) |
| Time | Latitude | Longitude | Altitude | Speed | Heading |
|---|---|---|---|---|---|
| 2026-05-05 09:14 | 52.30899 | 4.77238 | -2 ft | 0 kts | 3° |
| 2026-05-05 10:01 | 52.30880 | 4.77238 | -2 ft | 4 kts | 354° |
| 2026-05-05 10:01 | 52.30856 | 4.77242 | -2 ft | 4 kts | 22° |
| 2026-05-05 10:02 | 52.30844 | 4.77222 | -2 ft | 4 kts | 75° |
| 2026-05-05 10:02 | 52.30841 | 4.77204 | -2 ft | 0 kts | 74° |
| 2026-05-05 10:06 | 52.30842 | 4.77213 | -2 ft | 3 kts | 81° |
| 2026-05-05 10:06 | 52.30841 | 4.77298 | -2 ft | 11 kts | 94° |
| 2026-05-05 10:07 | 52.30833 | 4.77439 | -2 ft | 12 kts | 116° |
| 2026-05-05 10:07 | 52.30757 | 4.77460 | -2 ft | 11 kts | 183° |
| 2026-05-05 10:07 | 52.30660 | 4.77442 | -2 ft | 17 kts | 204° |
| 2026-05-05 10:07 | 52.30592 | 4.77297 | -2 ft | 13 kts | 236° |
| 2026-05-05 10:08 | 52.30543 | 4.77176 | -2 ft | 13 kts | 238° |
| 2026-05-05 10:08 | 52.30504 | 4.77064 | -2 ft | 11 kts | 239° |
| 2026-05-05 10:08 | 52.30467 | 4.76969 | -2 ft | 9 kts | 236° |
| 2026-05-05 10:08 | 52.30433 | 4.76884 | -2 ft | 9 kts | 238° |
| 2026-05-05 10:09 | 52.30398 | 4.76789 | -2 ft | 12 kts | 238° |
| 2026-05-05 10:09 | 52.30342 | 4.76641 | -2 ft | 16 kts | 238° |
| 2026-05-05 10:09 | 52.30291 | 4.76510 | -2 ft | 13 kts | 237° |
| 2026-05-05 10:09 | 52.30241 | 4.76381 | -2 ft | 14 kts | 238° |
| 2026-05-05 10:10 | 52.30176 | 4.76211 | -2 ft | 22 kts | 238° |
| 2026-05-05 10:10 | 52.30091 | 4.75988 | -2 ft | 23 kts | 238° |
| 2026-05-05 10:10 | 52.30008 | 4.75773 | -2 ft | 22 kts | 238° |
| 2026-05-05 10:10 | 52.29927 | 4.75561 | -2 ft | 22 kts | 238° |
| 2026-05-05 10:11 | 52.29850 | 4.75363 | -2 ft | 18 kts | 238° |
| 2026-05-05 10:11 | 52.29833 | 4.75246 | -2 ft | 10 kts | 278° |
| 2026-05-05 10:11 | 52.29871 | 4.75141 | -2 ft | 15 kts | 310° |
| 2026-05-05 10:11 | 52.29964 | 4.74969 | -2 ft | 24 kts | 311° |
| 2026-05-05 10:12 | 52.30081 | 4.74754 | 0 ft | 26 kts | 311° |
| 2026-05-05 10:12 | 52.30200 | 4.74533 | 9 ft | 26 kts | 311° |
| 2026-05-05 10:12 | 52.30279 | 4.74387 | 10 ft | 14 kts | 310° |
| 2026-05-05 10:12 | 52.30345 | 4.74258 | -2 ft | 13 kts | 311° |
| 2026-05-05 10:13 | 52.30366 | 4.74129 | -2 ft | 12 kts | 252° |
| 2026-05-05 10:13 | 52.30314 | 4.74025 | -2 ft | 12 kts | 219° |
| 2026-05-05 10:13 | 52.30247 | 4.73947 | -2 ft | 12 kts | 217° |
| 2026-05-05 10:13 | 52.30220 | 4.73913 | -2 ft | 0 kts | 218° |
| 2026-05-05 10:15 | 52.30218 | 4.73910 | -2 ft | 2 kts | 218° |
| 2026-05-05 10:15 | 52.30196 | 4.73870 | -3 ft | 8 kts | 239° |
| 2026-05-05 10:15 | 52.30196 | 4.73757 | -3 ft | 9 kts | 309° |
| 2026-05-05 10:15 | 52.30249 | 4.73742 | -4 ft | 0 kts | 3° |
| 2026-05-05 10:16 | 52.30268 | 4.73744 | -5 ft | 13 kts | 4° |
| 2026-05-05 10:16 | 52.30661 | 4.73781 | -3 ft | 99 kts | 3° |
| 2026-05-05 10:17 | 52.31593 | 4.73873 | 53 ft | 164 kts | 4° |
| 2026-05-05 10:17 | 52.32762 | 4.73976 | 1005 ft | 162 kts | 6° |
| 2026-05-05 10:17 | 52.33867 | 4.74006 | 2193 ft | 162 kts | 4° |
| 2026-05-05 10:17 | 52.35030 | 4.73982 | 3092 ft | 170 kts | 3° |
| 2026-05-05 10:18 | 52.36150 | 4.74051 | 4234 ft | 157 kts | 5° |
| 2026-05-05 10:18 | 52.37284 | 4.74174 | 5056 ft | 166 kts | 4° |
| 2026-05-05 10:18 | 52.38403 | 4.74664 | 5774 ft | 182 kts | 32° |
| 2026-05-05 10:18 | 52.39214 | 4.76500 | 5900 ft | 220 kts | 78° |
| 2026-05-05 10:19 | 52.39003 | 4.79018 | 6366 ft | 236 kts | 119° |
| 2026-05-05 10:19 | 52.37870 | 4.80969 | 6991 ft | 241 kts | 139° |
| 2026-05-05 10:19 | 52.36744 | 4.83019 | 7740 ft | 244 kts | 130° |
| 2026-05-05 10:19 | 52.35408 | 4.84805 | 8326 ft | 260 kts | 155° |
| 2026-05-05 10:20 | 52.33540 | 4.85386 | 8573 ft | 287 kts | 184° |
| 2026-05-05 10:20 | 52.31579 | 4.84996 | 9731 ft | 282 kts | 188° |
| 2026-05-05 10:20 | 52.29609 | 4.84788 | 10580 ft | 290 kts | 182° |
| 2026-05-05 10:20 | 52.27526 | 4.84745 | 10852 ft | 317 kts | 182° |
| 2026-05-05 10:21 | 52.25221 | 4.84732 | 11082 ft | 344 kts | 181° |
| 2026-05-05 10:21 | 52.22754 | 4.84710 | 11417 ft | 365 kts | 182° |
| 2026-05-05 10:21 | 52.20184 | 4.84668 | 12146 ft | 370 kts | 182° |
| 2026-05-05 10:21 | 52.17597 | 4.84618 | 13014 ft | 373 kts | 181° |
| 2026-05-05 10:22 | 52.14967 | 4.84564 | 13790 ft | 379 kts | 181° |
| 2026-05-05 10:22 | 52.12324 | 4.84511 | 14541 ft | 382 kts | 181° |
| 2026-05-05 10:22 | 52.09661 | 4.84457 | 15338 ft | 384 kts | 181° |
| 2026-05-05 10:22 | 52.06983 | 4.84401 | 16133 ft | 385 kts | 181° |
| 2026-05-05 10:23 | 52.04324 | 4.84343 | 16889 ft | 388 kts | 181° |
| 2026-05-05 10:23 | 52.01633 | 4.83911 | 17570 ft | 391 kts | 196° |
| 2026-05-05 10:23 | 51.99133 | 4.82154 | 18266 ft | 393 kts | 207° |
| 2026-05-05 10:23 | 51.96712 | 4.80143 | 19098 ft | 389 kts | 207° |
| 2026-05-05 10:24 | 51.94300 | 4.78204 | 19887 ft | 388 kts | 206° |
| 2026-05-05 10:24 | 51.91849 | 4.76273 | 20397 ft | 395 kts | 206° |
| 2026-05-05 10:24 | 51.89349 | 4.74318 | 20886 ft | 400 kts | 206° |
| 2026-05-05 10:24 | 51.86868 | 4.72379 | 21544 ft | 401 kts | 206° |
| 2026-05-05 10:25 | 51.84343 | 4.70406 | 22055 ft | 406 kts | 206° |
| 2026-05-05 10:25 | 51.81780 | 4.68405 | 22558 ft | 411 kts | 206° |
| 2026-05-05 10:25 | 51.79203 | 4.66396 | 23137 ft | 414 kts | 206° |
| 2026-05-05 10:25 | 51.76593 | 4.64363 | 23588 ft | 418 kts | 206° |
| 2026-05-05 10:26 | 51.73959 | 4.62314 | 23999 ft | 422 kts | 206° |
| 2026-05-05 10:26 | 51.71307 | 4.60254 | 24467 ft | 423 kts | 206° |
| 2026-05-05 10:26 | 51.68715 | 4.58243 | 24946 ft | 424 kts | 206° |
| 2026-05-05 10:26 | 51.66036 | 4.56168 | 25423 ft | 425 kts | 206° |
| 2026-05-05 10:27 | 51.63377 | 4.54111 | 25970 ft | 424 kts | 206° |
| 2026-05-05 10:27 | 51.60684 | 4.52029 | 26592 ft | 422 kts | 206° |
| 2026-05-05 10:27 | 51.58083 | 4.50022 | 27255 ft | 418 kts | 207° |
| 2026-05-05 10:27 | 51.55477 | 4.48013 | 27952 ft | 414 kts | 207° |
| 2026-05-05 10:28 | 51.52893 | 4.46024 | 28631 ft | 410 kts | 207° |
| 2026-05-05 10:28 | 51.50324 | 4.44049 | 29285 ft | 407 kts | 207° |
| 2026-05-05 10:28 | 51.47775 | 4.42092 | 29861 ft | 406 kts | 206° |
| 2026-05-05 10:28 | 51.45216 | 4.40129 | 30275 ft | 407 kts | 206° |
| 2026-05-05 10:29 | 51.42673 | 4.38181 | 30842 ft | 403 kts | 206° |
| 2026-05-05 10:29 | 51.40167 | 4.36264 | 30908 ft | 407 kts | 206° |
| 2026-05-05 10:29 | 51.35094 | 4.32470 | 30927 ft | 398 kts | 206° |
| 2026-05-05 10:30 | 51.30073 | 4.28721 | 30945 ft | 398 kts | 206° |
| 2026-05-05 10:30 | 51.25065 | 4.24903 | 30935 ft | 400 kts | 206° |
| 2026-05-05 10:31 | 51.20058 | 4.21090 | 30938 ft | 402 kts | 206° |
| 2026-05-05 10:31 | 51.14966 | 4.17415 | 30931 ft | 402 kts | 201° |
| 2026-05-05 10:32 | 51.09672 | 4.14530 | 30934 ft | 402 kts | 199° |
| 2026-05-05 10:32 | 51.04372 | 4.11726 | 30926 ft | 401 kts | 199° |
| 2026-05-05 10:33 | 50.99139 | 4.08900 | 30913 ft | 399 kts | 200° |
| 2026-05-05 10:33 | 50.93892 | 4.06047 | 30909 ft | 399 kts | 200° |
| 2026-05-05 10:34 | 50.88648 | 4.03199 | 30911 ft | 398 kts | 200° |
| 2026-05-05 10:34 | 50.83476 | 4.00062 | 30914 ft | 398 kts | 203° |
| 2026-05-05 10:35 | 50.78401 | 3.96734 | 30898 ft | 398 kts | 203° |
| 2026-05-05 10:35 | 50.73283 | 3.93417 | 30894 ft | 397 kts | 202° |
| 2026-05-05 10:36 | 50.68160 | 3.90139 | 30905 ft | 397 kts | 202° |
| 2026-05-05 10:36 | 50.63044 | 3.86882 | 30901 ft | 397 kts | 202° |
| 2026-05-05 10:37 | 50.57957 | 3.83648 | 30894 ft | 396 kts | 202° |
| 2026-05-05 10:37 | 50.52882 | 3.80260 | 30907 ft | 396 kts | 204° |
| 2026-05-05 10:38 | 50.47845 | 3.76781 | 30908 ft | 396 kts | 204° |
| 2026-05-05 10:38 | 50.42779 | 3.73316 | 30902 ft | 396 kts | 203° |
| 2026-05-05 10:39 | 50.37713 | 3.69876 | 30907 ft | 396 kts | 203° |
| 2026-05-05 10:39 | 50.32646 | 3.66441 | 30909 ft | 398 kts | 203° |
| 2026-05-05 10:40 | 50.27593 | 3.63019 | 30896 ft | 399 kts | 203° |
| 2026-05-05 10:40 | 50.22482 | 3.59567 | 30892 ft | 400 kts | 203° |
| 2026-05-05 10:41 | 50.17296 | 3.56075 | 31114 ft | 412 kts | 203° |
| 2026-05-05 10:41 | 50.14667 | 3.54309 | 31569 ft | 410 kts | 203° |
| 2026-05-05 10:41 | 50.12063 | 3.52560 | 32118 ft | 406 kts | 203° |
| 2026-05-05 10:42 | 50.06906 | 3.49104 | 32482 ft | 409 kts | 203° |
| 2026-05-05 10:42 | 50.04304 | 3.47363 | 32481 ft | 407 kts | 203° |
| 2026-05-05 10:43 | 49.99150 | 3.43921 | 32487 ft | 401 kts | 203° |
| 2026-05-05 10:43 | 49.94012 | 3.40498 | 32501 ft | 405 kts | 203° |
| 2026-05-05 10:43 | 49.91434 | 3.38784 | 32602 ft | 412 kts | 202° |
| 2026-05-05 10:44 | 49.88796 | 3.37033 | 32844 ft | 415 kts | 202° |
| 2026-05-05 10:44 | 49.86139 | 3.35271 | 33304 ft | 412 kts | 202° |
| 2026-05-05 10:44 | 49.83519 | 3.33534 | 33884 ft | 407 kts | 202° |
| 2026-05-05 10:44 | 49.80925 | 3.31817 | 34265 ft | 406 kts | 202° |
| 2026-05-05 10:45 | 49.78320 | 3.30094 | 34509 ft | 408 kts | 202° |
| 2026-05-05 10:45 | 49.75706 | 3.28368 | 34722 ft | 410 kts | 202° |
| 2026-05-05 10:45 | 49.73071 | 3.26631 | 34877 ft | 413 kts | 202° |
| 2026-05-05 10:46 | 49.67788 | 3.23154 | 34871 ft | 416 kts | 202° |
| 2026-05-05 10:46 | 49.62485 | 3.19672 | 34860 ft | 410 kts | 202° |
| 2026-05-05 10:47 | 49.57241 | 3.16238 | 34874 ft | 409 kts | 202° |
| 2026-05-05 10:47 | 49.51996 | 3.12810 | 34886 ft | 410 kts | 202° |
| 2026-05-05 10:48 | 49.46866 | 3.08974 | 34857 ft | 412 kts | 212° |
| 2026-05-05 10:48 | 49.42138 | 3.04102 | 34870 ft | 413 kts | 212° |
| 2026-05-05 10:49 | 49.37359 | 2.99190 | 34868 ft | 413 kts | 212° |
| 2026-05-05 10:49 | 49.32569 | 2.94322 | 34869 ft | 414 kts | 212° |
| 2026-05-05 10:50 | 49.27784 | 2.89489 | 34866 ft | 414 kts | 212° |
| 2026-05-05 10:50 | 49.22962 | 2.84635 | 34869 ft | 415 kts | 211° |
| 2026-05-05 10:51 | 49.18138 | 2.79789 | 34861 ft | 415 kts | 211° |
| 2026-05-05 10:51 | 49.13317 | 2.74958 | 34850 ft | 415 kts | 211° |
| 2026-05-05 10:52 | 49.08526 | 2.70168 | 34856 ft | 414 kts | 211° |
| 2026-05-05 10:52 | 49.03698 | 2.65353 | 34856 ft | 414 kts | 211° |
| 2026-05-05 10:53 | 48.98867 | 2.60546 | 34862 ft | 416 kts | 211° |
| 2026-05-05 10:53 | 48.94005 | 2.55716 | 34868 ft | 420 kts | 211° |
| 2026-05-05 10:54 | 48.89128 | 2.50876 | 34858 ft | 421 kts | 211° |
| 2026-05-05 10:54 | 48.84218 | 2.46014 | 34858 ft | 421 kts | 211° |
| 2026-05-05 10:55 | 48.79311 | 2.41170 | 34859 ft | 423 kts | 211° |
| 2026-05-05 10:55 | 48.76825 | 2.38722 | 35011 ft | 426 kts | 211° |
| 2026-05-05 10:55 | 48.74333 | 2.36270 | 35338 ft | 426 kts | 211° |
| 2026-05-05 10:55 | 48.71878 | 2.33856 | 35671 ft | 426 kts | 211° |
| 2026-05-05 10:56 | 48.69393 | 2.31416 | 35960 ft | 427 kts | 211° |
| 2026-05-05 10:56 | 48.66902 | 2.28974 | 36216 ft | 428 kts | 211° |
| 2026-05-05 10:56 | 48.64403 | 2.26527 | 36489 ft | 428 kts | 211° |
| 2026-05-05 10:56 | 48.61905 | 2.24082 | 36731 ft | 428 kts | 211° |
| 2026-05-05 10:57 | 48.59395 | 2.21636 | 36810 ft | 431 kts | 210° |
| 2026-05-05 10:57 | 48.53942 | 2.18106 | 36829 ft | 427 kts | 192° |
| 2026-05-05 10:58 | 48.49112 | 2.16583 | 36836 ft | 428 kts | 191° |
| 2026-05-05 10:58 | 48.42326 | 2.14485 | 36833 ft | 430 kts | 191° |
| 2026-05-05 10:59 | 48.36455 | 2.12610 | 36826 ft | 432 kts | 191° |
| 2026-05-05 10:59 | 48.31564 | 2.11039 | 36811 ft | 433 kts | 191° |
| 2026-05-05 11:00 | 48.25593 | 2.10450 | 36811 ft | 431 kts | 173° |
| 2026-05-05 11:00 | 48.18703 | 2.12022 | 36815 ft | 431 kts | 172° |
| 2026-05-05 11:01 | 48.13726 | 2.13109 | 36832 ft | 432 kts | 173° |
| 2026-05-05 11:01 | 48.07770 | 2.13695 | 36828 ft | 432 kts | 178° |
| 2026-05-05 11:02 | 48.01760 | 2.13944 | 36828 ft | 433 kts | 179° |
| 2026-05-05 11:02 | 47.95739 | 2.14223 | 36831 ft | 433 kts | 178° |
| 2026-05-05 11:03 | 47.89722 | 2.14552 | 36829 ft | 433 kts | 178° |
| 2026-05-05 11:03 | 47.83742 | 2.14898 | 36829 ft | 432 kts | 178° |
| 2026-05-05 11:04 | 47.77730 | 2.15249 | 36814 ft | 432 kts | 178° |
| 2026-05-05 11:04 | 47.71728 | 2.15597 | 36813 ft | 431 kts | 178° |
| 2026-05-05 11:05 | 47.65776 | 2.15941 | 36814 ft | 431 kts | 178° |
| 2026-05-05 11:05 | 47.59791 | 2.16285 | 36819 ft | 430 kts | 178° |
| 2026-05-05 11:06 | 47.53819 | 2.16629 | 36822 ft | 429 kts | 178° |
| 2026-05-05 11:06 | 47.47865 | 2.16970 | 36834 ft | 428 kts | 178° |
| 2026-05-05 11:07 | 47.41950 | 2.17309 | 36847 ft | 429 kts | 178° |
| 2026-05-05 11:07 | 47.35963 | 2.17651 | 36857 ft | 432 kts | 179° |
| 2026-05-05 11:08 | 47.29946 | 2.17994 | 36839 ft | 435 kts | 179° |
| 2026-05-05 11:08 | 47.23887 | 2.18340 | 36832 ft | 435 kts | 178° |
| 2026-05-05 11:09 | 47.17903 | 2.18683 | 36851 ft | 434 kts | 179° |
| 2026-05-05 11:09 | 47.11889 | 2.19027 | 36848 ft | 430 kts | 178° |
| 2026-05-05 11:10 | 47.06044 | 2.20725 | 36850 ft | 430 kts | 161° |
| 2026-05-05 11:10 | 47.00518 | 2.23982 | 36873 ft | 428 kts | 160° |
| 2026-05-05 11:11 | 46.94987 | 2.27273 | 36857 ft | 429 kts | 160° |
| 2026-05-05 11:11 | 46.89491 | 2.30503 | 36857 ft | 428 kts | 160° |
| 2026-05-05 11:12 | 46.83958 | 2.33725 | 36862 ft | 428 kts | 160° |
| 2026-05-05 11:12 | 46.78429 | 2.36931 | 36860 ft | 428 kts | 160° |
| 2026-05-05 11:13 | 46.72917 | 2.40119 | 36868 ft | 430 kts | 160° |
| 2026-05-05 11:13 | 46.67346 | 2.43335 | 36845 ft | 431 kts | 160° |
| 2026-05-05 11:14 | 46.61771 | 2.46547 | 36880 ft | 432 kts | 160° |
| 2026-05-05 11:14 | 46.56174 | 2.49764 | 36877 ft | 433 kts | 160° |
| 2026-05-05 11:15 | 46.50562 | 2.52983 | 36878 ft | 434 kts | 161° |
| 2026-05-05 11:15 | 46.44984 | 2.56176 | 36885 ft | 434 kts | 161° |
| 2026-05-05 11:16 | 46.39359 | 2.59388 | 36887 ft | 435 kts | 161° |
| 2026-05-05 11:16 | 46.33725 | 2.62598 | 36881 ft | 435 kts | 161° |
| 2026-05-05 11:17 | 46.28099 | 2.65798 | 36890 ft | 435 kts | 161° |
| 2026-05-05 11:17 | 46.22503 | 2.68973 | 36890 ft | 435 kts | 161° |
| 2026-05-05 11:18 | 46.16877 | 2.72159 | 36887 ft | 434 kts | 161° |
| 2026-05-05 11:18 | 46.11247 | 2.75341 | 36888 ft | 434 kts | 161° |
| 2026-05-05 11:19 | 46.05622 | 2.78516 | 36877 ft | 434 kts | 161° |
| 2026-05-05 11:19 | 46.00036 | 2.81658 | 36893 ft | 434 kts | 161° |
| 2026-05-05 11:20 | 45.94390 | 2.84700 | 36908 ft | 433 kts | 163° |
| 2026-05-05 11:20 | 45.88729 | 2.87670 | 36902 ft | 433 kts | 163° |
| 2026-05-05 11:21 | 45.83076 | 2.90657 | 36914 ft | 433 kts | 163° |
| 2026-05-05 11:21 | 45.77454 | 2.93625 | 36912 ft | 434 kts | 163° |
| 2026-05-05 11:22 | 45.71599 | 2.95313 | 36899 ft | 428 kts | 181° |
| 2026-05-05 11:22 | 45.65667 | 2.95152 | 36906 ft | 426 kts | 184° |
| 2026-05-05 11:23 | 45.59745 | 2.94917 | 36903 ft | 426 kts | 184° |
| 2026-05-05 11:23 | 45.53818 | 2.94720 | 36900 ft | 426 kts | 184° |
| 2026-05-05 11:24 | 45.47932 | 2.94559 | 36914 ft | 426 kts | 184° |
| 2026-05-05 11:24 | 45.42004 | 2.94403 | 36910 ft | 426 kts | 184° |
| 2026-05-05 11:25 | 45.36073 | 2.94246 | 36909 ft | 427 kts | 184° |
| 2026-05-05 11:25 | 45.30137 | 2.94088 | 36913 ft | 427 kts | 184° |
| 2026-05-05 11:26 | 45.24238 | 2.93930 | 36912 ft | 427 kts | 184° |
| 2026-05-05 11:26 | 45.18289 | 2.93772 | 36912 ft | 428 kts | 184° |
| 2026-05-05 11:27 | 45.12342 | 2.93615 | 36920 ft | 427 kts | 184° |
| 2026-05-05 11:27 | 45.06403 | 2.93458 | 36919 ft | 427 kts | 184° |
| 2026-05-05 11:28 | 45.00510 | 2.93303 | 36926 ft | 426 kts | 184° |
| 2026-05-05 11:28 | 44.94578 | 2.93149 | 36927 ft | 426 kts | 185° |
| 2026-05-05 11:29 | 44.88666 | 2.92995 | 36933 ft | 425 kts | 185° |
| 2026-05-05 11:29 | 44.82759 | 2.92814 | 36922 ft | 424 kts | 186° |
| 2026-05-05 11:30 | 44.76924 | 2.92388 | 36938 ft | 422 kts | 187° |
| 2026-05-05 11:30 | 44.71062 | 2.91905 | 36932 ft | 422 kts | 187° |
| 2026-05-05 11:31 | 44.65211 | 2.91452 | 36941 ft | 421 kts | 186° |
| 2026-05-05 11:31 | 44.59358 | 2.91018 | 36933 ft | 421 kts | 186° |
| 2026-05-05 11:32 | 44.53521 | 2.90595 | 36933 ft | 420 kts | 187° |
| 2026-05-05 11:32 | 44.47723 | 2.90175 | 36928 ft | 420 kts | 187° |
| 2026-05-05 11:33 | 44.41889 | 2.89752 | 36951 ft | 419 kts | 187° |
| 2026-05-05 11:33 | 44.36065 | 2.89332 | 36940 ft | 419 kts | 187° |
| 2026-05-05 11:34 | 44.30253 | 2.88912 | 36941 ft | 418 kts | 187° |
| 2026-05-05 11:34 | 44.24451 | 2.88495 | 36946 ft | 417 kts | 187° |
| 2026-05-05 11:35 | 44.18697 | 2.88081 | 36926 ft | 417 kts | 188° |
| 2026-05-05 11:35 | 44.12908 | 2.87666 | 36941 ft | 416 kts | 187° |
| 2026-05-05 11:36 | 44.07132 | 2.87253 | 36946 ft | 415 kts | 187° |
| 2026-05-05 11:36 | 44.01367 | 2.86842 | 36954 ft | 415 kts | 187° |
| 2026-05-05 11:37 | 43.95638 | 2.86434 | 36940 ft | 415 kts | 188° |
| 2026-05-05 11:37 | 43.89877 | 2.86026 | 36945 ft | 415 kts | 188° |
| 2026-05-05 11:38 | 43.84108 | 2.85619 | 36942 ft | 415 kts | 188° |
| 2026-05-05 11:38 | 43.78389 | 2.85216 | 36946 ft | 414 kts | 188° |
| 2026-05-05 11:39 | 43.72598 | 2.85171 | 36938 ft | 416 kts | 185° |
| 2026-05-05 11:39 | 43.66807 | 2.85301 | 36941 ft | 416 kts | 185° |
| 2026-05-05 11:40 | 43.61031 | 2.85422 | 36949 ft | 415 kts | 185° |
| 2026-05-05 11:40 | 43.55266 | 2.85520 | 36960 ft | 412 kts | 185° |
| 2026-05-05 11:41 | 43.49538 | 2.85605 | 36948 ft | 411 kts | 185° |
| 2026-05-05 11:41 | 43.43853 | 2.85687 | 36948 ft | 411 kts | 185° |
| 2026-05-05 11:42 | 43.38129 | 2.85771 | 36929 ft | 411 kts | 186° |
| 2026-05-05 11:42 | 43.32415 | 2.85853 | 36924 ft | 411 kts | 186° |
| 2026-05-05 11:42 | 43.29554 | 2.85895 | 36651 ft | 408 kts | 186° |
| 2026-05-05 11:43 | 43.26740 | 2.85941 | 36396 ft | 401 kts | 186° |
| 2026-05-05 11:43 | 43.24009 | 2.85985 | 36150 ft | 394 kts | 186° |
| 2026-05-05 11:43 | 43.21288 | 2.86028 | 35892 ft | 389 kts | 187° |
| 2026-05-05 11:43 | 43.18596 | 2.86068 | 35624 ft | 384 kts | 187° |
| 2026-05-05 11:44 | 43.15935 | 2.86107 | 35388 ft | 380 kts | 187° |
| 2026-05-05 11:44 | 43.13313 | 2.86144 | 35151 ft | 376 kts | 187° |
| 2026-05-05 11:44 | 43.10716 | 2.86182 | 34867 ft | 370 kts | 188° |
| 2026-05-05 11:44 | 43.08162 | 2.86220 | 34547 ft | 365 kts | 188° |
| 2026-05-05 11:45 | 43.05641 | 2.86257 | 34196 ft | 361 kts | 188° |
| 2026-05-05 11:45 | 43.03145 | 2.86292 | 33828 ft | 357 kts | 188° |
| 2026-05-05 11:45 | 43.00674 | 2.86326 | 33435 ft | 353 kts | 188° |
| 2026-05-05 11:45 | 42.98273 | 2.86362 | 33064 ft | 347 kts | 188° |
| 2026-05-05 11:46 | 42.95871 | 2.86397 | 32727 ft | 342 kts | 189° |
| 2026-05-05 11:46 | 42.93505 | 2.86432 | 32390 ft | 338 kts | 188° |
| 2026-05-05 11:46 | 42.91168 | 2.86466 | 32035 ft | 334 kts | 189° |
| 2026-05-05 11:46 | 42.88859 | 2.86500 | 31721 ft | 330 kts | 189° |
| 2026-05-05 11:47 | 42.86578 | 2.86532 | 31381 ft | 326 kts | 189° |
| 2026-05-05 11:47 | 42.84314 | 2.86564 | 31058 ft | 323 kts | 189° |
| 2026-05-05 11:47 | 42.82083 | 2.86595 | 30728 ft | 320 kts | 189° |
| 2026-05-05 11:47 | 42.79898 | 2.86627 | 30415 ft | 316 kts | 190° |
| 2026-05-05 11:48 | 42.75541 | 2.86688 | 29748 ft | 309 kts | 191° |
| 2026-05-05 11:48 | 42.73433 | 2.86576 | 29525 ft | 298 kts | 194° |
| 2026-05-05 11:48 | 42.71383 | 2.86345 | 29199 ft | 293 kts | 195° |
| 2026-05-05 11:49 | 42.69364 | 2.86089 | 28879 ft | 291 kts | 195° |
| 2026-05-05 11:49 | 42.67325 | 2.85825 | 28567 ft | 299 kts | 195° |
| 2026-05-05 11:49 | 42.65192 | 2.85546 | 28221 ft | 316 kts | 194° |
| 2026-05-05 11:49 | 42.62990 | 2.85275 | 27830 ft | 317 kts | 194° |
| 2026-05-05 11:50 | 42.60812 | 2.85022 | 27452 ft | 313 kts | 194° |
| 2026-05-05 11:50 | 42.58691 | 2.84780 | 27139 ft | 307 kts | 194° |
| 2026-05-05 11:50 | 42.56570 | 2.84536 | 26757 ft | 304 kts | 194° |
| 2026-05-05 11:50 | 42.54474 | 2.84294 | 26424 ft | 300 kts | 194° |
| 2026-05-05 11:51 | 42.52403 | 2.84053 | 26088 ft | 297 kts | 194° |
| 2026-05-05 11:51 | 42.50355 | 2.83814 | 25763 ft | 294 kts | 194° |
| 2026-05-05 11:51 | 42.48321 | 2.83576 | 25429 ft | 292 kts | 193° |
| 2026-05-05 11:51 | 42.46298 | 2.83340 | 25098 ft | 291 kts | 193° |
| 2026-05-05 11:52 | 42.44301 | 2.83056 | 24782 ft | 286 kts | 197° |
| 2026-05-05 11:52 | 42.42345 | 2.82603 | 24490 ft | 286 kts | 198° |
| 2026-05-05 11:52 | 42.40357 | 2.82086 | 24199 ft | 298 kts | 198° |
| 2026-05-05 11:52 | 42.38318 | 2.81553 | 23883 ft | 305 kts | 198° |
| 2026-05-05 11:53 | 42.36218 | 2.81017 | 23529 ft | 307 kts | 197° |
| 2026-05-05 11:53 | 42.34120 | 2.80492 | 23162 ft | 306 kts | 197° |
| 2026-05-05 11:53 | 42.32029 | 2.79975 | 22824 ft | 304 kts | 197° |
| 2026-05-05 11:53 | 42.29953 | 2.79463 | 22490 ft | 303 kts | 197° |
| 2026-05-05 11:54 | 42.27881 | 2.78955 | 22165 ft | 301 kts | 197° |
| 2026-05-05 11:54 | 42.25826 | 2.78452 | 21862 ft | 299 kts | 197° |
| 2026-05-05 11:54 | 42.23783 | 2.77952 | 21540 ft | 298 kts | 197° |
| 2026-05-05 11:54 | 42.21771 | 2.77460 | 21229 ft | 297 kts | 196° |
| 2026-05-05 11:55 | 42.19737 | 2.76962 | 20935 ft | 296 kts | 196° |
| 2026-05-05 11:55 | 42.17711 | 2.76466 | 20628 ft | 296 kts | 196° |
| 2026-05-05 11:55 | 42.15690 | 2.75971 | 20314 ft | 295 kts | 196° |
| 2026-05-05 11:55 | 42.13753 | 2.75175 | 20013 ft | 288 kts | 211° |
| 2026-05-05 11:56 | 42.12105 | 2.73690 | 19718 ft | 284 kts | 224° |
| 2026-05-05 11:56 | 42.10747 | 2.71769 | 19435 ft | 283 kts | 229° |
| 2026-05-05 11:56 | 42.09455 | 2.69776 | 19138 ft | 283 kts | 229° |
| 2026-05-05 11:56 | 42.08169 | 2.67773 | 18861 ft | 283 kts | 229° |
| 2026-05-05 11:57 | 42.06873 | 2.65761 | 18576 ft | 285 kts | 229° |
| 2026-05-05 11:57 | 42.05583 | 2.63772 | 18266 ft | 287 kts | 229° |
| 2026-05-05 11:57 | 42.04265 | 2.61752 | 17932 ft | 287 kts | 229° |
| 2026-05-05 11:57 | 42.02946 | 2.59738 | 17604 ft | 287 kts | 229° |
| 2026-05-05 11:58 | 42.01625 | 2.57727 | 17272 ft | 286 kts | 228° |
| 2026-05-05 11:58 | 42.00311 | 2.55731 | 16990 ft | 284 kts | 229° |
| 2026-05-05 11:58 | 41.99002 | 2.53748 | 16686 ft | 282 kts | 228° |
| 2026-05-05 11:58 | 41.97713 | 2.51794 | 16387 ft | 279 kts | 228° |
| 2026-05-05 11:59 | 41.96435 | 2.49856 | 16092 ft | 276 kts | 228° |
| 2026-05-05 11:59 | 41.95179 | 2.47956 | 15799 ft | 274 kts | 228° |
| 2026-05-05 11:59 | 41.93915 | 2.46048 | 15504 ft | 274 kts | 228° |
| 2026-05-05 11:59 | 41.92650 | 2.44134 | 15259 ft | 275 kts | 228° |
| 2026-05-05 12:00 | 41.91372 | 2.42205 | 14959 ft | 277 kts | 228° |
| 2026-05-05 12:00 | 41.90096 | 2.40280 | 14682 ft | 277 kts | 228° |
| 2026-05-05 12:00 | 41.88811 | 2.38344 | 14383 ft | 277 kts | 228° |
| 2026-05-05 12:00 | 41.87529 | 2.36412 | 14093 ft | 277 kts | 228° |
| 2026-05-05 12:01 | 41.86192 | 2.34565 | 13645 ft | 279 kts | 216° |
| 2026-05-05 12:01 | 41.84378 | 2.33693 | 13133 ft | 285 kts | 189° |
| 2026-05-05 12:01 | 41.82366 | 2.33765 | 12802 ft | 286 kts | 178° |
| 2026-05-05 12:01 | 41.80444 | 2.33874 | 12620 ft | 277 kts | 182° |
| 2026-05-05 12:02 | 41.78527 | 2.34146 | 12289 ft | 278 kts | 176° |
| 2026-05-05 12:02 | 41.76614 | 2.34576 | 11851 ft | 280 kts | 174° |
| 2026-05-05 12:02 | 41.74697 | 2.35034 | 11616 ft | 277 kts | 174° |
| 2026-05-05 12:02 | 41.72813 | 2.35478 | 11356 ft | 274 kts | 174° |
| 2026-05-05 12:03 | 41.70944 | 2.35905 | 11143 ft | 270 kts | 175° |
| 2026-05-05 12:03 | 41.69108 | 2.36315 | 10850 ft | 269 kts | 175° |
| 2026-05-05 12:03 | 41.67216 | 2.36726 | 10199 ft | 279 kts | 175° |
| 2026-05-05 12:03 | 41.65323 | 2.37134 | 9595 ft | 281 kts | 175° |
| 2026-05-05 12:04 | 41.63382 | 2.37551 | 8939 ft | 283 kts | 174° |
| 2026-05-05 12:04 | 41.61430 | 2.37968 | 8310 ft | 285 kts | 174° |
| 2026-05-05 12:04 | 41.59471 | 2.38386 | 7679 ft | 286 kts | 174° |
| 2026-05-05 12:04 | 41.57503 | 2.38804 | 7063 ft | 287 kts | 174° |
| 2026-05-05 12:05 | 41.55532 | 2.39222 | 6455 ft | 287 kts | 173° |
| 2026-05-05 12:05 | 41.53567 | 2.39638 | 5797 ft | 287 kts | 173° |
| 2026-05-05 12:05 | 41.51598 | 2.40056 | 5191 ft | 285 kts | 173° |
| 2026-05-05 12:05 | 41.49662 | 2.40467 | 4573 ft | 285 kts | 173° |
| 2026-05-05 12:06 | 41.47719 | 2.40878 | 4139 ft | 280 kts | 172° |
| 2026-05-05 12:06 | 41.45812 | 2.41281 | 3725 ft | 274 kts | 173° |
| 2026-05-05 12:06 | 41.43971 | 2.41667 | 3552 ft | 262 kts | 175° |
| 2026-05-05 12:06 | 41.42216 | 2.41488 | 3326 ft | 250 kts | 205° |
| 2026-05-05 12:07 | 41.40943 | 2.40031 | 3111 ft | 242 kts | 239° |
| 2026-05-05 12:07 | 41.40178 | 2.38085 | 3041 ft | 232 kts | 242° |
| 2026-05-05 12:07 | 41.39465 | 2.36204 | 2892 ft | 228 kts | 244° |
| 2026-05-05 12:07 | 41.38776 | 2.34290 | 2757 ft | 225 kts | 245° |
| 2026-05-05 12:08 | 41.38129 | 2.32435 | 2605 ft | 220 kts | 245° |
| 2026-05-05 12:08 | 41.37508 | 2.30641 | 2454 ft | 206 kts | 245° |
| 2026-05-05 12:08 | 41.36931 | 2.28953 | 2310 ft | 194 kts | 245° |
| 2026-05-05 12:08 | 41.36394 | 2.27353 | 2151 ft | 186 kts | 245° |
| 2026-05-05 12:09 | 41.35867 | 2.25827 | 2010 ft | 179 kts | 243° |
| 2026-05-05 12:09 | 41.35329 | 2.24334 | 2020 ft | 180 kts | 245° |
| 2026-05-05 12:09 | 41.34828 | 2.22810 | 2010 ft | 179 kts | 245° |
| 2026-05-05 12:09 | 41.34319 | 2.21303 | 1813 ft | 181 kts | 243° |
| 2026-05-05 12:10 | 41.33811 | 2.19821 | 1578 ft | 172 kts | 245° |
| 2026-05-05 12:10 | 41.33330 | 2.18418 | 1368 ft | 162 kts | 244° |
| 2026-05-05 12:10 | 41.32877 | 2.17098 | 1167 ft | 151 kts | 245° |
| 2026-05-05 12:10 | 41.32448 | 2.15847 | 963 ft | 147 kts | 245° |
| 2026-05-05 12:11 | 41.32038 | 2.14614 | 759 ft | 147 kts | 245° |
| 2026-05-05 12:11 | 41.31617 | 2.13324 | 578 ft | 154 kts | 244° |
| 2026-05-05 12:11 | 41.31152 | 2.12024 | 356 ft | 155 kts | 244° |
| 2026-05-05 12:11 | 41.30702 | 2.10730 | 133 ft | 156 kts | 242° |
| 2026-05-05 12:12 | 41.30266 | 2.09439 | 17 ft | 144 kts | 238° |
| 2026-05-05 12:12 | 41.29899 | 2.08415 | 26 ft | 101 kts | 246° |
| 2026-05-05 12:12 | 41.29748 | 2.07837 | 15 ft | 42 kts | 269° |
| 2026-05-05 12:12 | 41.29774 | 2.07642 | 13 ft | 8 kts | 310° |
| 2026-05-05 12:13 | 41.29822 | 2.07601 | 13 ft | 8 kts | 338° |
| 2026-05-05 12:13 | 41.29873 | 2.07622 | 16 ft | 8 kts | 47° |
| 2026-05-05 12:13 | 41.29900 | 2.07687 | 17 ft | 8 kts | 65° |
| 2026-05-05 12:13 | 41.29929 | 2.07773 | 17 ft | 14 kts | 66° |
| 2026-05-05 12:14 | 41.29975 | 2.07908 | 16 ft | 18 kts | 65° |
| 2026-05-05 12:14 | 41.30038 | 2.07987 | 16 ft | 15 kts | 349° |
| 2026-05-05 12:14 | 41.30114 | 2.07927 | 17 ft | 10 kts | 310° |
| 2026-05-05 12:14 | 41.30172 | 2.07890 | 19 ft | 6 kts | 6° |
| 2026-05-05 12:15 | 41.30214 | 2.07912 | 20 ft | 5 kts | 26° |
| 2026-05-05 12:15 | 41.30235 | 2.07925 | 21 ft | 1 kts | 25° |